sensor_id;sensor_type;location;lat;lon;timestamp;P1;durP1;ratioP1;P2;durP2;ratioP2
22144;SDS011;11238;48.730;11.566;2023-02-26T00:00:05;4.40;;;2.00;;
22144;SDS011;11238;48.730;11.566;2023-02-26T00:02:37;2.45;;;1.90;;
22144;SDS011;11238;48.730;11.566;2023-02-26T00:05:05;3.17;;;2.30;;
22144;SDS011;11238;48.730;11.566;2023-02-26T00:07:31;2.17;;;1.98;;
22144;SDS011;11238;48.730;11.566;2023-02-26T00:09:57;2.65;;;1.70;;
22144;SDS011;11238;48.730;11.566;2023-02-26T00:12:23;3.92;;;2.05;;
22144;SDS011;11238;48.730;11.566;2023-02-26T00:14:50;2.85;;;1.85;;
22144;SDS011;11238;48.730;11.566;2023-02-26T00:17:36;2.85;;;1.90;;
22144;SDS011;11238;48.730;11.566;2023-02-26T00:20:08;5.47;;;1.77;;
22144;SDS011;11238;48.730;11.566;2023-02-26T00:22:36;3.42;;;1.48;;
22144;SDS011;11238;48.730;11.566;2023-02-26T00:25:03;4.68;;;1.77;;
22144;SDS011;11238;48.730;11.566;2023-02-26T00:27:29;2.08;;;1.50;;
22144;SDS011;11238;48.730;11.566;2023-02-26T00:29:55;1.60;;;1.50;;
22144;SDS011;11238;48.730;11.566;2023-02-26T00:32:21;2.70;;;1.50;;
22144;SDS011;11238;48.730;11.566;2023-02-26T00:34:48;1.60;;;1.50;;
22144;SDS011;11238;48.730;11.566;2023-02-26T00:37:30;1.73;;;1.50;;
22144;SDS011;11238;48.730;11.566;2023-02-26T00:40:11;2.15;;;1.60;;
22144;SDS011;11238;48.730;11.566;2023-02-26T00:42:45;3.53;;;1.77;;
22144;SDS011;11238;48.730;11.566;2023-02-26T00:45:32;3.28;;;1.70;;
22144;SDS011;11238;48.730;11.566;2023-02-26T00:48:07;1.63;;;1.50;;
22144;SDS011;11238;48.730;11.566;2023-02-26T00:54:01;2.78;;;1.65;;
22144;SDS011;11238;48.730;11.566;2023-02-26T00:56:28;3.45;;;1.70;;
22144;SDS011;11238;48.730;11.566;2023-02-26T00:58:54;3.10;;;1.65;;
22144;SDS011;11238;48.730;11.566;2023-02-26T01:01:20;2.55;;;1.60;;
22144;SDS011;11238;48.730;11.566;2023-02-26T01:03:45;3.03;;;1.63;;
22144;SDS011;11238;48.730;11.566;2023-02-26T01:06:12;2.85;;;1.77;;
22144;SDS011;11238;48.730;11.566;2023-02-26T01:08:50;4.00;;;1.80;;
22144;SDS011;11238;48.730;11.566;2023-02-26T01:11:22;5.15;;;1.60;;
22144;SDS011;11238;48.730;11.566;2023-02-26T01:13:48;2.38;;;1.70;;
22144;SDS011;11238;48.730;11.566;2023-02-26T01:16:16;2.00;;;1.60;;
22144;SDS011;11238;48.730;11.566;2023-02-26T01:18:52;4.25;;;1.83;;
22144;SDS011;11238;48.730;11.566;2023-02-26T01:21:32;3.90;;;1.70;;
22144;SDS011;11238;48.730;11.566;2023-02-26T01:24:04;3.65;;;1.58;;
22144;SDS011;11238;48.730;11.566;2023-02-26T01:26:33;2.33;;;1.70;;
22144;SDS011;11238;48.730;11.566;2023-02-26T01:28:59;4.75;;;1.90;;
22144;SDS011;11238;48.730;11.566;2023-02-26T01:31:32;5.20;;;1.70;;
22144;SDS011;11238;48.730;11.566;2023-02-26T01:34:04;3.53;;;1.63;;
22144;SDS011;11238;48.730;11.566;2023-02-26T01:36:47;4.78;;;1.98;;
22144;SDS011;11238;48.730;11.566;2023-02-26T01:39:32;4.18;;;1.83;;
22144;SDS011;11238;48.730;11.566;2023-02-26T01:42:30;3.10;;;2.00;;
22144;SDS011;11238;48.730;11.566;2023-02-26T01:45:10;2.08;;;1.63;;
22144;SDS011;11238;48.730;11.566;2023-02-26T01:47:58;3.25;;;1.80;;
22144;SDS011;11238;48.730;11.566;2023-02-26T01:50:33;3.95;;;1.95;;
22144;SDS011;11238;48.730;11.566;2023-02-26T01:53:19;4.32;;;1.92;;
22144;SDS011;11238;48.730;11.566;2023-02-26T01:55:53;2.28;;;1.80;;
22144;SDS011;11238;48.730;11.566;2023-02-26T01:58:38;5.53;;;1.95;;
22144;SDS011;11238;48.730;11.566;2023-02-26T02:01:04;6.50;;;2.03;;
22144;SDS011;11238;48.730;11.566;2023-02-26T02:03:33;4.55;;;1.98;;
22144;SDS011;11238;48.730;11.566;2023-02-26T02:06:05;3.55;;;1.90;;
22144;SDS011;11238;48.730;11.566;2023-02-26T02:08:33;8.32;;;2.05;;
22144;SDS011;11238;48.730;11.566;2023-02-26T02:11:01;3.78;;;1.92;;
22144;SDS011;11238;48.730;11.566;2023-02-26T02:13:34;3.83;;;1.90;;
22144;SDS011;11238;48.730;11.566;2023-02-26T02:27:24;4.53;;;2.20;;
22144;SDS011;11238;48.730;11.566;2023-02-26T02:33:09;2.95;;;2.08;;
22144;SDS011;11238;48.730;11.566;2023-02-26T02:35:51;2.65;;;1.83;;
22144;SDS011;11238;48.730;11.566;2023-02-26T02:38:41;4.35;;;1.92;;
22144;SDS011;11238;48.730;11.566;2023-02-26T02:41:23;2.40;;;1.70;;
22144;SDS011;11238;48.730;11.566;2023-02-26T02:44:00;6.13;;;2.20;;
22144;SDS011;11238;48.730;11.566;2023-02-26T02:46:30;4.90;;;2.05;;
22144;SDS011;11238;48.730;11.566;2023-02-26T02:49:23;2.35;;;1.98;;
22144;SDS011;11238;48.730;11.566;2023-02-26T02:52:05;4.60;;;2.00;;
22144;SDS011;11238;48.730;11.566;2023-02-26T02:54:50;5.63;;;2.28;;
22144;SDS011;11238;48.730;11.566;2023-02-26T02:57:29;4.50;;;2.03;;
22144;SDS011;11238;48.730;11.566;2023-02-26T03:00:15;2.92;;;2.10;;
22144;SDS011;11238;48.730;11.566;2023-02-26T03:02:48;3.35;;;2.17;;
22144;SDS011;11238;48.730;11.566;2023-02-26T03:05:35;4.55;;;2.10;;
22144;SDS011;11238;48.730;11.566;2023-02-26T03:08:03;2.92;;;2.20;;
22144;SDS011;11238;48.730;11.566;2023-02-26T03:10:31;3.42;;;1.90;;
22144;SDS011;11238;48.730;11.566;2023-02-26T03:12:58;5.20;;;2.45;;
22144;SDS011;11238;48.730;11.566;2023-02-26T03:21:09;2.35;;;2.15;;
22144;SDS011;11238;48.730;11.566;2023-02-26T03:24:26;4.50;;;2.30;;
22144;SDS011;11238;48.730;11.566;2023-02-26T03:26:43;5.50;;;2.30;;
22144;SDS011;11238;48.730;11.566;2023-02-26T03:29:21;3.65;;;2.20;;
22144;SDS011;11238;48.730;11.566;2023-02-26T03:32:33;2.70;;;2.00;;
22144;SDS011;11238;48.730;11.566;2023-02-26T03:35:09;5.18;;;2.30;;
22144;SDS011;11238;48.730;11.566;2023-02-26T03:37:41;6.28;;;2.00;;
22144;SDS011;11238;48.730;11.566;2023-02-26T03:40:13;5.07;;;2.58;;
22144;SDS011;11238;48.730;11.566;2023-02-26T03:42:47;4.60;;;1.98;;
22144;SDS011;11238;48.730;11.566;2023-02-26T03:45:26;4.15;;;1.77;;
22144;SDS011;11238;48.730;11.566;2023-02-26T03:47:55;2.67;;;1.90;;
22144;SDS011;11238;48.730;11.566;2023-02-26T03:53:22;3.40;;;2.00;;
22144;SDS011;11238;48.730;11.566;2023-02-26T03:56:03;5.18;;;2.17;;
22144;SDS011;11238;48.730;11.566;2023-02-26T03:59:15;5.05;;;2.13;;
22144;SDS011;11238;48.730;11.566;2023-02-26T04:01:50;5.35;;;2.00;;
22144;SDS011;11238;48.730;11.566;2023-02-26T04:04:25;3.00;;;2.30;;
22144;SDS011;11238;48.730;11.566;2023-02-26T04:06:59;3.72;;;2.17;;
22144;SDS011;11238;48.730;11.566;2023-02-26T04:09:25;3.67;;;2.15;;
22144;SDS011;11238;48.730;11.566;2023-02-26T04:11:52;4.65;;;2.30;;
22144;SDS011;11238;48.730;11.566;2023-02-26T04:14:19;4.93;;;2.08;;
22144;SDS011;11238;48.730;11.566;2023-02-26T04:16:45;5.63;;;2.30;;
22144;SDS011;11238;48.730;11.566;2023-02-26T04:19:11;6.30;;;2.38;;
22144;SDS011;11238;48.730;11.566;2023-02-26T04:21:38;4.03;;;2.20;;
22144;SDS011;11238;48.730;11.566;2023-02-26T04:24:05;4.65;;;2.10;;
22144;SDS011;11238;48.730;11.566;2023-02-26T04:26:32;5.32;;;2.15;;
22144;SDS011;11238;48.730;11.566;2023-02-26T04:29:00;3.67;;;2.33;;
22144;SDS011;11238;48.730;11.566;2023-02-26T04:31:26;5.55;;;2.40;;
22144;SDS011;11238;48.730;11.566;2023-02-26T04:33:52;3.55;;;2.08;;
22144;SDS011;11238;48.730;11.566;2023-02-26T04:36:18;4.60;;;2.33;;
22144;SDS011;11238;48.730;11.566;2023-02-26T04:38:44;3.63;;;2.10;;
22144;SDS011;11238;48.730;11.566;2023-02-26T04:41:10;5.97;;;2.30;;
22144;SDS011;11238;48.730;11.566;2023-02-26T04:43:36;6.13;;;2.22;;
22144;SDS011;11238;48.730;11.566;2023-02-26T04:46:16;2.65;;;2.10;;
22144;SDS011;11238;48.730;11.566;2023-02-26T04:48:42;4.05;;;2.20;;
22144;SDS011;11238;48.730;11.566;2023-02-26T04:51:08;4.90;;;2.20;;
22144;SDS011;11238;48.730;11.566;2023-02-26T04:53:34;7.05;;;2.42;;
22144;SDS011;11238;48.730;11.566;2023-02-26T04:56:00;5.32;;;2.20;;
22144;SDS011;11238;48.730;11.566;2023-02-26T04:58:26;4.28;;;2.30;;
22144;SDS011;11238;48.730;11.566;2023-02-26T05:00:55;4.38;;;2.40;;
22144;SDS011;11238;48.730;11.566;2023-02-26T05:03:21;4.18;;;2.47;;
22144;SDS011;11238;48.730;11.566;2023-02-26T05:05:47;4.18;;;2.63;;
22144;SDS011;11238;48.730;11.566;2023-02-26T05:08:13;5.25;;;2.60;;
22144;SDS011;11238;48.730;11.566;2023-02-26T05:10:38;5.03;;;2.22;;
22144;SDS011;11238;48.730;11.566;2023-02-26T05:13:05;4.18;;;2.33;;
22144;SDS011;11238;48.730;11.566;2023-02-26T05:15:31;4.70;;;2.38;;
22144;SDS011;11238;48.730;11.566;2023-02-26T05:18:19;6.70;;;2.50;;
22144;SDS011;11238;48.730;11.566;2023-02-26T05:20:45;6.57;;;2.20;;
22144;SDS011;11238;48.730;11.566;2023-02-26T05:23:19;5.00;;;2.20;;
22144;SDS011;11238;48.730;11.566;2023-02-26T05:25:46;6.03;;;2.50;;
22144;SDS011;11238;48.730;11.566;2023-02-26T05:28:13;5.88;;;2.15;;
22144;SDS011;11238;48.730;11.566;2023-02-26T05:30:39;3.80;;;2.30;;
22144;SDS011;11238;48.730;11.566;2023-02-26T05:33:06;5.93;;;2.70;;
22144;SDS011;11238;48.730;11.566;2023-02-26T05:35:31;4.32;;;2.30;;
22144;SDS011;11238;48.730;11.566;2023-02-26T05:37:58;3.72;;;2.20;;
22144;SDS011;11238;48.730;11.566;2023-02-26T05:40:24;2.90;;;2.33;;
22144;SDS011;11238;48.730;11.566;2023-02-26T05:42:50;5.68;;;2.30;;
22144;SDS011;11238;48.730;11.566;2023-02-26T05:45:18;9.32;;;2.42;;
22144;SDS011;11238;48.730;11.566;2023-02-26T05:47:44;4.82;;;2.50;;
22144;SDS011;11238;48.730;11.566;2023-02-26T05:50:10;4.15;;;2.08;;
22144;SDS011;11238;48.730;11.566;2023-02-26T05:52:36;6.90;;;2.40;;
22144;SDS011;11238;48.730;11.566;2023-02-26T05:55:03;5.30;;;2.40;;
22144;SDS011;11238;48.730;11.566;2023-02-26T05:57:29;5.82;;;2.33;;
22144;SDS011;11238;48.730;11.566;2023-02-26T05:59:55;3.33;;;2.20;;
22144;SDS011;11238;48.730;11.566;2023-02-26T06:02:20;2.30;;;2.10;;
22144;SDS011;11238;48.730;11.566;2023-02-26T06:04:46;4.22;;;2.47;;
22144;SDS011;11238;48.730;11.566;2023-02-26T06:07:12;7.43;;;2.85;;
22144;SDS011;11238;48.730;11.566;2023-02-26T06:09:38;4.00;;;2.33;;
22144;SDS011;11238;48.730;11.566;2023-02-26T06:12:04;4.00;;;2.13;;
22144;SDS011;11238;48.730;11.566;2023-02-26T06:14:31;6.80;;;2.42;;
22144;SDS011;11238;48.730;11.566;2023-02-26T06:16:57;3.90;;;2.50;;
22144;SDS011;11238;48.730;11.566;2023-02-26T06:19:25;3.17;;;2.25;;
22144;SDS011;11238;48.730;11.566;2023-02-26T06:21:51;3.95;;;2.40;;
22144;SDS011;11238;48.730;11.566;2023-02-26T06:24:17;5.43;;;2.55;;
22144;SDS011;11238;48.730;11.566;2023-02-26T06:26:43;3.25;;;2.35;;
22144;SDS011;11238;48.730;11.566;2023-02-26T06:29:09;5.72;;;2.40;;
22144;SDS011;11238;48.730;11.566;2023-02-26T06:31:35;3.35;;;2.30;;
22144;SDS011;11238;48.730;11.566;2023-02-26T06:34:01;3.58;;;2.65;;
22144;SDS011;11238;48.730;11.566;2023-02-26T06:36:27;2.60;;;2.22;;
22144;SDS011;11238;48.730;11.566;2023-02-26T06:38:53;6.15;;;2.30;;
22144;SDS011;11238;48.730;11.566;2023-02-26T06:41:18;6.28;;;2.50;;
22144;SDS011;11238;48.730;11.566;2023-02-26T06:43:44;2.97;;;2.33;;
22144;SDS011;11238;48.730;11.566;2023-02-26T06:46:10;5.45;;;2.63;;
22144;SDS011;11238;48.730;11.566;2023-02-26T06:53:52;5.30;;;2.60;;
22144;SDS011;11238;48.730;11.566;2023-02-26T06:56:17;5.85;;;2.65;;
22144;SDS011;11238;48.730;11.566;2023-02-26T06:58:44;3.70;;;2.58;;
22144;SDS011;11238;48.730;11.566;2023-02-26T07:01:09;3.40;;;2.33;;
22144;SDS011;11238;48.730;11.566;2023-02-26T07:03:35;3.72;;;2.65;;
22144;SDS011;11238;48.730;11.566;2023-02-26T07:06:01;3.83;;;2.60;;
22144;SDS011;11238;48.730;11.566;2023-02-26T07:08:28;5.05;;;2.63;;
22144;SDS011;11238;48.730;11.566;2023-02-26T07:10:54;4.68;;;2.90;;
22144;SDS011;11238;48.730;11.566;2023-02-26T07:13:19;3.50;;;2.90;;
22144;SDS011;11238;48.730;11.566;2023-02-26T07:15:45;4.72;;;2.90;;
22144;SDS011;11238;48.730;11.566;2023-02-26T07:18:11;3.83;;;2.85;;
22144;SDS011;11238;48.730;11.566;2023-02-26T07:20:37;4.35;;;2.70;;
22144;SDS011;11238;48.730;11.566;2023-02-26T07:23:03;3.60;;;2.88;;
22144;SDS011;11238;48.730;11.566;2023-02-26T07:25:29;6.80;;;2.80;;
22144;SDS011;11238;48.730;11.566;2023-02-26T07:27:54;4.05;;;2.65;;
22144;SDS011;11238;48.730;11.566;2023-02-26T07:30:20;7.30;;;4.78;;
22144;SDS011;11238;48.730;11.566;2023-02-26T07:32:46;3.35;;;2.85;;
22144;SDS011;11238;48.730;11.566;2023-02-26T07:35:12;5.97;;;3.67;;
22144;SDS011;11238;48.730;11.566;2023-02-26T07:37:38;6.30;;;3.58;;
22144;SDS011;11238;48.730;11.566;2023-02-26T07:40:04;4.88;;;2.80;;
22144;SDS011;11238;48.730;11.566;2023-02-26T07:42:30;4.43;;;2.90;;
22144;SDS011;11238;48.730;11.566;2023-02-26T07:44:56;3.97;;;2.90;;
22144;SDS011;11238;48.730;11.566;2023-02-26T07:47:23;4.72;;;3.20;;
22144;SDS011;11238;48.730;11.566;2023-02-26T07:49:48;3.53;;;3.20;;
22144;SDS011;11238;48.730;11.566;2023-02-26T07:52:14;3.22;;;2.90;;
22144;SDS011;11238;48.730;11.566;2023-02-26T07:54:40;3.50;;;2.88;;
22144;SDS011;11238;48.730;11.566;2023-02-26T07:57:06;4.85;;;3.20;;
22144;SDS011;11238;48.730;11.566;2023-02-26T07:59:32;5.32;;;3.00;;
22144;SDS011;11238;48.730;11.566;2023-02-26T08:01:57;5.53;;;3.00;;
22144;SDS011;11238;48.730;11.566;2023-02-26T08:04:23;4.15;;;2.75;;
22144;SDS011;11238;48.730;11.566;2023-02-26T08:06:49;4.18;;;3.35;;
22144;SDS011;11238;48.730;11.566;2023-02-26T08:09:15;3.63;;;2.80;;
22144;SDS011;11238;48.730;11.566;2023-02-26T08:11:41;4.82;;;2.90;;
22144;SDS011;11238;48.730;11.566;2023-02-26T08:14:07;3.50;;;2.80;;
22144;SDS011;11238;48.730;11.566;2023-02-26T08:16:34;5.03;;;3.13;;
22144;SDS011;11238;48.730;11.566;2023-02-26T08:19:00;5.47;;;3.08;;
22144;SDS011;11238;48.730;11.566;2023-02-26T08:21:25;3.67;;;3.03;;
22144;SDS011;11238;48.730;11.566;2023-02-26T08:23:51;2.80;;;2.55;;
22144;SDS011;11238;48.730;11.566;2023-02-26T08:26:17;3.50;;;3.00;;
22144;SDS011;11238;48.730;11.566;2023-02-26T08:28:43;4.70;;;3.08;;
22144;SDS011;11238;48.730;11.566;2023-02-26T08:31:11;3.38;;;2.58;;
22144;SDS011;11238;48.730;11.566;2023-02-26T08:33:38;4.20;;;2.72;;
22144;SDS011;11238;48.730;11.566;2023-02-26T08:36:04;3.42;;;2.85;;
22144;SDS011;11238;48.730;11.566;2023-02-26T08:38:30;2.83;;;2.60;;
22144;SDS011;11238;48.730;11.566;2023-02-26T08:40:57;7.50;;;2.80;;
22144;SDS011;11238;48.730;11.566;2023-02-26T08:43:23;2.70;;;2.47;;
22144;SDS011;11238;48.730;11.566;2023-02-26T08:45:52;4.80;;;2.75;;
22144;SDS011;11238;48.730;11.566;2023-02-26T08:48:19;3.70;;;3.28;;
22144;SDS011;11238;48.730;11.566;2023-02-26T08:50:45;3.65;;;3.05;;
22144;SDS011;11238;48.730;11.566;2023-02-26T08:53:12;3.80;;;2.72;;
22144;SDS011;11238;48.730;11.566;2023-02-26T08:55:38;3.78;;;2.70;;
22144;SDS011;11238;48.730;11.566;2023-02-26T08:58:04;4.05;;;2.80;;
22144;SDS011;11238;48.730;11.566;2023-02-26T09:00:30;2.67;;;2.42;;
22144;SDS011;11238;48.730;11.566;2023-02-26T09:02:56;4.72;;;2.75;;
22144;SDS011;11238;48.730;11.566;2023-02-26T09:05:22;4.20;;;2.30;;
22144;SDS011;11238;48.730;11.566;2023-02-26T09:07:47;8.15;;;4.97;;
22144;SDS011;11238;48.730;11.566;2023-02-26T09:10:13;9.93;;;4.57;;
22144;SDS011;11238;48.730;11.566;2023-02-26T09:12:40;12.55;;;7.40;;
22144;SDS011;11238;48.730;11.566;2023-02-26T09:15:07;18.40;;;10.90;;
22144;SDS011;11238;48.730;11.566;2023-02-26T09:17:33;27.50;;;15.82;;
22144;SDS011;11238;48.730;11.566;2023-02-26T09:19:59;54.58;;;30.77;;
22144;SDS011;11238;48.730;11.566;2023-02-26T09:22:25;8.75;;;6.00;;
22144;SDS011;11238;48.730;11.566;2023-02-26T09:24:51;4.93;;;3.85;;
22144;SDS011;11238;48.730;11.566;2023-02-26T09:27:16;4.32;;;3.35;;
22144;SDS011;11238;48.730;11.566;2023-02-26T09:29:42;4.85;;;4.45;;
22144;SDS011;11238;48.730;11.566;2023-02-26T09:32:08;3.85;;;3.00;;
22144;SDS011;11238;48.730;11.566;2023-02-26T09:34:34;4.22;;;3.80;;
22144;SDS011;11238;48.730;11.566;2023-02-26T09:37:02;5.80;;;4.68;;
22144;SDS011;11238;48.730;11.566;2023-02-26T09:39:29;7.53;;;5.45;;
22144;SDS011;11238;48.730;11.566;2023-02-26T09:41:55;7.75;;;5.40;;
22144;SDS011;11238;48.730;11.566;2023-02-26T09:44:42;4.15;;;3.75;;
22144;SDS011;11238;48.730;11.566;2023-02-26T09:58:28;3.10;;;2.80;;
22144;SDS011;11238;48.730;11.566;2023-02-26T10:06:24;4.13;;;3.17;;
22144;SDS011;11238;48.730;11.566;2023-02-26T10:14:30;2.63;;;2.28;;
22144;SDS011;11238;48.730;11.566;2023-02-26T10:16:58;2.78;;;2.55;;
22144;SDS011;11238;48.730;11.566;2023-02-26T10:19:37;3.30;;;2.47;;
22144;SDS011;11238;48.730;11.566;2023-02-26T10:25:26;3.00;;;2.70;;
22144;SDS011;11238;48.730;11.566;2023-02-26T10:27:52;4.45;;;2.97;;
22144;SDS011;11238;48.730;11.566;2023-02-26T10:30:57;3.55;;;2.85;;
22144;SDS011;11238;48.730;11.566;2023-02-26T10:36:27;3.15;;;2.80;;
22144;SDS011;11238;48.730;11.566;2023-02-26T10:39:00;2.70;;;2.50;;
22144;SDS011;11238;48.730;11.566;2023-02-26T10:41:29;5.32;;;3.50;;
22144;SDS011;11238;48.730;11.566;2023-02-26T10:44:17;4.68;;;3.50;;
22144;SDS011;11238;48.730;11.566;2023-02-26T10:47:04;4.40;;;3.17;;
22144;SDS011;11238;48.730;11.566;2023-02-26T10:49:46;2.63;;;2.42;;
22144;SDS011;11238;48.730;11.566;2023-02-26T10:52:18;2.67;;;2.28;;
22144;SDS011;11238;48.730;11.566;2023-02-26T10:57:27;2.50;;;2.30;;
22144;SDS011;11238;48.730;11.566;2023-02-26T10:59:59;2.70;;;2.50;;
22144;SDS011;11238;48.730;11.566;2023-02-26T11:02:32;3.10;;;2.80;;
22144;SDS011;11238;48.730;11.566;2023-02-26T11:05:03;4.20;;;2.70;;
22144;SDS011;11238;48.730;11.566;2023-02-26T11:07:31;3.05;;;2.75;;
22144;SDS011;11238;48.730;11.566;2023-02-26T11:10:01;2.20;;;2.00;;
22144;SDS011;11238;48.730;11.566;2023-02-26T11:12:27;2.45;;;2.25;;
22144;SDS011;11238;48.730;11.566;2023-02-26T11:14:53;2.22;;;2.03;;
22144;SDS011;11238;48.730;11.566;2023-02-26T11:17:41;2.40;;;2.00;;
22144;SDS011;11238;48.730;11.566;2023-02-26T11:20:13;2.40;;;2.20;;
22144;SDS011;11238;48.730;11.566;2023-02-26T11:22:59;2.67;;;2.30;;
22144;SDS011;11238;48.730;11.566;2023-02-26T11:25:27;2.58;;;1.98;;
22144;SDS011;11238;48.730;11.566;2023-02-26T11:28:06;2.20;;;2.00;;
22144;SDS011;11238;48.730;11.566;2023-02-26T11:30:43;2.55;;;2.30;;
22144;SDS011;11238;48.730;11.566;2023-02-26T11:33:23;2.33;;;2.08;;
22144;SDS011;11238;48.730;11.566;2023-02-26T11:35:54;2.15;;;1.95;;
22144;SDS011;11238;48.730;11.566;2023-02-26T11:38:25;1.80;;;1.70;;
22144;SDS011;11238;48.730;11.566;2023-02-26T11:40:53;1.60;;;1.50;;
22144;SDS011;11238;48.730;11.566;2023-02-26T11:43:21;1.73;;;1.60;;
22144;SDS011;11238;48.730;11.566;2023-02-26T11:45:57;2.25;;;2.00;;
22144;SDS011;11238;48.730;11.566;2023-02-26T11:48:25;2.00;;;1.80;;
22144;SDS011;11238;48.730;11.566;2023-02-26T11:50:58;2.08;;;1.88;;
22144;SDS011;11238;48.730;11.566;2023-02-26T11:56:02;2.10;;;1.90;;
22144;SDS011;11238;48.730;11.566;2023-02-26T11:58:34;2.60;;;2.03;;
22144;SDS011;11238;48.730;11.566;2023-02-26T12:01:03;2.70;;;2.13;;
22144;SDS011;11238;48.730;11.566;2023-02-26T12:03:32;3.53;;;2.53;;
22144;SDS011;11238;48.730;11.566;2023-02-26T12:06:04;2.22;;;2.03;;
22144;SDS011;11238;48.730;11.566;2023-02-26T12:08:31;3.88;;;2.40;;
22144;SDS011;11238;48.730;11.566;2023-02-26T12:11:18;3.10;;;2.08;;
22144;SDS011;11238;48.730;11.566;2023-02-26T12:22:17;1.65;;;1.55;;
22144;SDS011;11238;48.730;11.566;2023-02-26T12:33:19;1.58;;;1.48;;
22144;SDS011;11238;48.730;11.566;2023-02-26T12:39:03;1.98;;;1.55;;
22144;SDS011;11238;48.730;11.566;2023-02-26T12:42:08;1.70;;;1.60;;
22144;SDS011;11238;48.730;11.566;2023-02-26T12:59:31;3.53;;;1.63;;
22144;SDS011;11238;48.730;11.566;2023-02-26T13:07:57;3.00;;;1.88;;
22144;SDS011;11238;48.730;11.566;2023-02-26T13:11:01;1.60;;;1.50;;
22144;SDS011;11238;48.730;11.566;2023-02-26T13:17:05;1.70;;;1.50;;
22144;SDS011;11238;48.730;11.566;2023-02-26T13:19:41;1.60;;;1.50;;
22144;SDS011;11238;48.730;11.566;2023-02-26T13:22:23;2.10;;;1.88;;
22144;SDS011;11238;48.730;11.566;2023-02-26T13:25:00;2.70;;;1.65;;
22144;SDS011;11238;48.730;11.566;2023-02-26T13:27:31;1.67;;;1.58;;
22144;SDS011;11238;48.730;11.566;2023-02-26T13:30:05;1.70;;;1.60;;
22144;SDS011;11238;48.730;11.566;2023-02-26T13:32:43;1.80;;;1.70;;
22144;SDS011;11238;48.730;11.566;2023-02-26T13:35:17;3.45;;;1.70;;
22144;SDS011;11238;48.730;11.566;2023-02-26T13:37:47;1.58;;;1.48;;
22144;SDS011;11238;48.730;11.566;2023-02-26T13:40:28;2.80;;;1.38;;
22144;SDS011;11238;48.730;11.566;2023-02-26T13:51:11;1.45;;;1.25;;
22144;SDS011;11238;48.730;11.566;2023-02-26T13:56:05;1.63;;;1.52;;
22144;SDS011;11238;48.730;11.566;2023-02-26T13:58:52;3.03;;;1.52;;
22144;SDS011;11238;48.730;11.566;2023-02-26T14:01:31;1.77;;;1.30;;
22144;SDS011;11238;48.730;11.566;2023-02-26T14:06:59;2.83;;;2.10;;
22144;SDS011;11238;48.730;11.566;2023-02-26T14:12:23;2.55;;;2.10;;
22144;SDS011;11238;48.730;11.566;2023-02-26T14:17:59;5.25;;;2.63;;
22144;SDS011;11238;48.730;11.566;2023-02-26T14:20:31;2.58;;;2.15;;
22144;SDS011;11238;48.730;11.566;2023-02-26T14:25:36;2.13;;;1.92;;
22144;SDS011;11238;48.730;11.566;2023-02-26T14:28:19;1.88;;;1.63;;
22144;SDS011;11238;48.730;11.566;2023-02-26T14:33:29;1.50;;;1.40;;
22144;SDS011;11238;48.730;11.566;2023-02-26T14:35:56;2.33;;;1.70;;
22144;SDS011;11238;48.730;11.566;2023-02-26T14:38:23;2.17;;;1.75;;
22144;SDS011;11238;48.730;11.566;2023-02-26T14:43:44;3.05;;;1.80;;
22144;SDS011;11238;48.730;11.566;2023-02-26T14:46:16;2.30;;;2.10;;
22144;SDS011;11238;48.730;11.566;2023-02-26T14:48:43;4.03;;;3.47;;
22144;SDS011;11238;48.730;11.566;2023-02-26T14:53:52;3.33;;;2.85;;
22144;SDS011;11238;48.730;11.566;2023-02-26T15:01:42;2.20;;;2.00;;
22144;SDS011;11238;48.730;11.566;2023-02-26T15:10:15;3.53;;;2.03;;
22144;SDS011;11238;48.730;11.566;2023-02-26T15:24:02;3.00;;;2.10;;
22144;SDS011;11238;48.730;11.566;2023-02-26T15:26:30;1.65;;;1.55;;
22144;SDS011;11238;48.730;11.566;2023-02-26T15:28:59;2.22;;;2.00;;
22144;SDS011;11238;48.730;11.566;2023-02-26T15:31:36;1.90;;;1.70;;
22144;SDS011;11238;48.730;11.566;2023-02-26T15:34:09;3.25;;;1.75;;
22144;SDS011;11238;48.730;11.566;2023-02-26T15:36:38;3.55;;;2.10;;
22144;SDS011;11238;48.730;11.566;2023-02-26T15:39:07;4.07;;;1.90;;
22144;SDS011;11238;48.730;11.566;2023-02-26T15:41:36;2.22;;;1.80;;
22144;SDS011;11238;48.730;11.566;2023-02-26T15:44:07;1.60;;;1.50;;
22144;SDS011;11238;48.730;11.566;2023-02-26T15:46:42;2.13;;;1.90;;
22144;SDS011;11238;48.730;11.566;2023-02-26T15:49:33;2.17;;;1.90;;
22144;SDS011;11238;48.730;11.566;2023-02-26T15:52:01;2.10;;;1.90;;
22144;SDS011;11238;48.730;11.566;2023-02-26T15:54:39;2.10;;;1.90;;
22144;SDS011;11238;48.730;11.566;2023-02-26T15:57:08;2.10;;;1.90;;
22144;SDS011;11238;48.730;11.566;2023-02-26T15:59:36;1.85;;;1.73;;
22144;SDS011;11238;48.730;11.566;2023-02-26T16:02:29;2.25;;;2.00;;
22144;SDS011;11238;48.730;11.566;2023-02-26T16:04:56;3.13;;;2.00;;
22144;SDS011;11238;48.730;11.566;2023-02-26T16:07:22;2.50;;;2.10;;
22144;SDS011;11238;48.730;11.566;2023-02-26T16:09:50;2.72;;;2.15;;
22144;SDS011;11238;48.730;11.566;2023-02-26T16:12:23;4.07;;;2.75;;
22144;SDS011;11238;48.730;11.566;2023-02-26T16:15:08;5.18;;;3.13;;
22144;SDS011;11238;48.730;11.566;2023-02-26T16:17:39;2.22;;;1.98;;
22144;SDS011;11238;48.730;11.566;2023-02-26T16:20:18;2.30;;;2.10;;
22144;SDS011;11238;48.730;11.566;2023-02-26T16:22:56;1.85;;;1.75;;
22144;SDS011;11238;48.730;11.566;2023-02-26T16:25:37;2.22;;;1.80;;
22144;SDS011;11238;48.730;11.566;2023-02-26T16:28:19;3.25;;;2.65;;
22144;SDS011;11238;48.730;11.566;2023-02-26T16:30:53;2.95;;;1.80;;
22144;SDS011;11238;48.730;11.566;2023-02-26T16:33:21;3.45;;;2.65;;
22144;SDS011;11238;48.730;11.566;2023-02-26T16:36:03;2.50;;;2.30;;
22144;SDS011;11238;48.730;11.566;2023-02-26T16:38:54;2.17;;;1.98;;
22144;SDS011;11238;48.730;11.566;2023-02-26T16:41:24;2.50;;;2.30;;
22144;SDS011;11238;48.730;11.566;2023-02-26T16:43:53;2.67;;;2.30;;
22144;SDS011;11238;48.730;11.566;2023-02-26T16:49:10;3.92;;;2.70;;
22144;SDS011;11238;48.730;11.566;2023-02-26T16:51:45;3.10;;;2.80;;
22144;SDS011;11238;48.730;11.566;2023-02-26T16:54:39;3.20;;;2.90;;
22144;SDS011;11238;48.730;11.566;2023-02-26T16:57:15;4.07;;;3.35;;
22144;SDS011;11238;48.730;11.566;2023-02-26T16:59:46;4.60;;;3.20;;
22144;SDS011;11238;48.730;11.566;2023-02-26T17:02:17;3.83;;;3.20;;
22144;SDS011;11238;48.730;11.566;2023-02-26T17:04:49;4.85;;;2.50;;
22144;SDS011;11238;48.730;11.566;2023-02-26T17:07:24;4.50;;;3.60;;
22144;SDS011;11238;48.730;11.566;2023-02-26T17:09:55;5.43;;;4.70;;
22144;SDS011;11238;48.730;11.566;2023-02-26T17:12:41;6.88;;;5.20;;
22144;SDS011;11238;48.730;11.566;2023-02-26T17:15:18;5.82;;;4.47;;
22144;SDS011;11238;48.730;11.566;2023-02-26T17:17:45;5.00;;;3.20;;
22144;SDS011;11238;48.730;11.566;2023-02-26T17:20:14;5.15;;;3.50;;
22144;SDS011;11238;48.730;11.566;2023-02-26T17:22:41;3.97;;;2.92;;
22144;SDS011;11238;48.730;11.566;2023-02-26T17:25:12;5.95;;;3.20;;
22144;SDS011;11238;48.730;11.566;2023-02-26T17:27:42;5.40;;;3.05;;
22144;SDS011;11238;48.730;11.566;2023-02-26T17:30:11;4.72;;;3.53;;
22144;SDS011;11238;48.730;11.566;2023-02-26T17:32:43;6.10;;;3.10;;
22144;SDS011;11238;48.730;11.566;2023-02-26T17:35:13;3.53;;;2.55;;
22144;SDS011;11238;48.730;11.566;2023-02-26T17:37:40;3.80;;;2.78;;
22144;SDS011;11238;48.730;11.566;2023-02-26T17:40:19;4.68;;;2.92;;
22144;SDS011;11238;48.730;11.566;2023-02-26T17:42:46;4.05;;;3.30;;